Time;durP1;ratioP1;P1;durP2;ratioP2;P2;SDS_P1;SDS_P2;PMS_P1;PMS_P2;Temp;Humidity;BMP_temperature;BMP_pressure;BME280_temperature;BME280_humidity;BME280_pressure;Samples;Min_cycle;Max_cycle;Signal;HPM_P1;HPM_P2
2021/03/05 00:00:45;;;;;;;;;31.00;28.00;;;;;;;;5025387;28;11615;-74
2021/03/05 00:03:12;;;;;;;;;22.75;22.75;;;;;;;;5018927;28;11588;-74
2021/03/05 00:05:40;;;;;;;;;33.25;26.50;;;;;;;;5022646;28;11571;-74
2021/03/05 00:08:08;;;;;;;;;24.00;23.00;;;;;;;;5030649;28;11568;-74
2021/03/05 00:10:36;;;;;;;;;25.00;19.25;;;;;;;;5022682;28;12289;-74
2021/03/05 00:13:04;;;;;;;;;20.25;20.00;;;;;;;;5024660;28;11528;-74
2021/03/05 00:15:34;;;;;;;;;27.50;24.50;;;;;;;;5010127;28;11566;-74
2021/03/05 00:18:01;;;;;;;;;26.25;23.50;;;;;;;;5017934;28;11505;-73
2021/03/05 00:20:30;;;;;;;;;19.75;19.75;;;;;;;;5008860;28;11577;-73
2021/03/05 00:22:57;;;;;;;;;24.00;21.50;;;;;;;;5027667;28;11594;-73
2021/03/05 00:25:25;;;;;;;;;22.50;22.50;;;;;;;;5009496;28;11594;-73
2021/03/05 00:27:52;;;;;;;;;21.50;18.00;;;;;;;;5025918;28;12322;-74
2021/03/05 00:30:21;;;;;;;;;23.50;19.50;;;;;;;;5017101;28;11543;-73
2021/03/05 00:32:48;;;;;;;;;25.75;21.00;;;;;;;;5026863;28;12613;-73
2021/03/05 00:35:16;;;;;;;;;22.50;20.25;;;;;;;;5026603;28;11677;-74
2021/03/05 00:37:44;;;;;;;;;27.75;20.75;;;;;;;;5036663;28;11573;-73
2021/03/05 00:40:12;;;;;;;;;28.25;25.25;;;;;;;;5007858;28;11606;-74
2021/03/05 00:42:40;;;;;;;;;18.25;18.25;;;;;;;;5018944;28;11660;-73
2021/03/05 00:45:08;;;;;;;;;25.00;23.25;;;;;;;;5025382;28;11566;-74
2021/03/05 00:47:37;;;;;;;;;23.75;22.25;;;;;;;;5025334;28;11591;-74
2021/03/05 00:50:05;;;;;;;;;22.50;21.75;;;;;;;;5026762;28;11605;-74
2021/03/05 00:52:32;;;;;;;;;22.00;18.75;;;;;;;;5020199;28;11579;-74
2021/03/05 00:54:58;;;;;;;;;22.00;21.00;;;;;;;;5024419;28;11564;-74
2021/03/05 00:57:25;;;;;;;;;23.50;23.50;;;;;;;;5026784;28;11561;-74
2021/03/05 00:59:52;;;;;;;;;24.25;24.25;;;;;;;;5019873;28;11616;-74
2021/03/05 01:02:19;;;;;;;;;21.75;19.00;;;;;;;;5025780;28;11687;-74
2021/03/05 01:04:47;;;;;;;;;20.50;20.50;;;;;;;;5025895;28;11566;-73
2021/03/05 01:07:14;;;;;;;;;21.00;21.00;;;;;;;;5026998;28;11559;-74
2021/03/05 01:09:41;;;;;;;;;35.25;28.00;;;;;;;;5026017;28;11666;-73
2021/03/05 01:12:09;;;;;;;;;50.50;43.25;;;;;;;;5014384;28;11570;-74
2021/03/05 01:14:35;;;;;;;;;18.25;18.25;;;;;;;;5026768;28;11611;-74
2021/03/05 01:17:02;;;;;;;;;20.00;18.00;;;;;;;;5017952;28;12539;-74
2021/03/05 01:19:29;;;;;;;;;24.75;22.00;;;;;;;;5025856;28;12181;-74
2021/03/05 01:21:57;;;;;;;;;22.75;22.75;;;;;;;;5021926;28;11561;-74
2021/03/05 01:24:24;;;;;;;;;21.75;17.75;;;;;;;;5025816;28;11561;-74
2021/03/05 01:26:52;;;;;;;;;27.25;24.00;;;;;;;;5022276;28;11599;-73
2021/03/05 01:29:19;;;;;;;;;17.50;16.25;;;;;;;;5026091;28;11562;-74
2021/03/05 01:31:45;;;;;;;;;17.25;16.00;;;;;;;;5033256;28;11485;-74
2021/03/05 01:34:12;;;;;;;;;33.50;30.50;;;;;;;;5040673;28;11649;-74
2021/03/05 01:36:40;;;;;;;;;27.50;21.00;;;;;;;;5039673;28;12890;-74
2021/03/05 01:39:08;;;;;;;;;19.75;17.25;;;;;;;;5029534;28;11658;-74
2021/03/05 01:41:36;;;;;;;;;26.25;22.75;;;;;;;;5021144;28;11579;-74
2021/03/05 01:44:05;;;;;;;;;23.25;19.75;;;;;;;;5026287;28;11554;-74
2021/03/05 01:46:32;;;;;;;;;20.00;18.50;;;;;;;;5008774;28;11636;-74
2021/03/05 01:48:59;;;;;;;;;26.50;20.00;;;;;;;;5023241;28;12190;-74
2021/03/05 01:51:28;;;;;;;;;11.50;11.50;;;;;;;;5022695;28;11548;-74
2021/03/05 01:53:55;;;;;;;;;18.75;16.25;;;;;;;;5026390;28;11537;-74
2021/03/05 01:56:35;;;;;;;;;21.25;15.25;;;;;;;;5024746;28;12375;-74
2021/03/05 01:59:03;;;;;;;;;19.50;16.75;;;;;;;;5026540;28;12507;-74
2021/03/05 02:01:30;;;;;;;;;21.50;17.00;;;;;;;;5025996;28;11611;-74
2021/03/05 02:03:57;;;;;;;;;17.00;14.25;;;;;;;;5026250;28;11548;-74
2021/03/05 02:06:25;;;;;;;;;17.00;14.50;;;;;;;;5026405;28;11546;-74
2021/03/05 02:08:52;;;;;;;;;16.00;12.00;;;;;;;;5025102;28;11707;-74
2021/03/05 02:11:21;;;;;;;;;15.75;15.75;;;;;;;;5026598;28;11585;-74
2021/03/05 02:13:49;;;;;;;;;14.75;14.25;;;;;;;;5017027;28;11555;-74
2021/03/05 02:16:27;;;;;;;;;15.00;15.00;;;;;;;;5026633;28;11550;-73
2021/03/05 02:18:59;;;;;;;;;14.50;12.00;;;;;;;;5026070;28;11658;-74
2021/03/05 02:22:04;;;;;;;;;16.25;15.50;;;;;;;;5025201;28;11505;-74
2021/03/05 02:25:16;;;;;;;;;17.00;16.00;;;;;;;;4981363;28;11646;-74
2021/03/05 02:28:15;;;;;;;;;21.25;17.75;;;;;;;;5023020;28;11549;-73
2021/03/05 02:31:03;;;;;;;;;16.75;13.00;;;;;;;;5020706;28;11554;-74
2021/03/05 02:33:37;;;;;;;;;33.75;19.25;;;;;;;;5023371;28;11541;-74
2021/03/05 02:36:05;;;;;;;;;14.75;13.50;;;;;;;;5022172;28;11573;-74
2021/03/05 02:38:33;;;;;;;;;18.50;13.75;;;;;;;;5024200;28;11604;-74
2021/03/05 02:41:01;;;;;;;;;16.00;16.00;;;;;;;;5010275;28;11536;-74
2021/03/05 02:43:29;;;;;;;;;12.25;12.25;;;;;;;;5033995;28;11583;-74
2021/03/05 02:45:59;;;;;;;;;15.25;15.00;;;;;;;;5022868;28;11767;-74
2021/03/05 02:48:30;;;;;;;;;15.25;9.75;;;;;;;;5021748;28;12321;-74
2021/03/05 02:51:01;;;;;;;;;11.25;9.00;;;;;;;;5017331;28;12263;-73
2021/03/05 02:53:29;;;;;;;;;12.00;9.00;;;;;;;;5024226;28;11540;-74
2021/03/05 02:55:59;;;;;;;;;6.50;6.00;;;;;;;;5023231;28;12420;-74
2021/03/05 02:58:26;;;;;;;;;9.50;6.00;;;;;;;;5022881;28;11542;-74
2021/03/05 03:00:55;;;;;;;;;8.75;8.75;;;;;;;;5030721;28;11444;-75
2021/03/05 03:03:24;;;;;;;;;9.75;7.00;;;;;;;;5028589;28;11526;-75
2021/03/05 03:05:51;;;;;;;;;8.00;8.00;;;;;;;;5022846;28;11660;-74
2021/03/05 03:08:19;;;;;;;;;8.25;6.00;;;;;;;;5024455;28;11646;-74
2021/03/05 03:10:47;;;;;;;;;11.50;8.75;;;;;;;;5024121;28;12314;-74
2021/03/05 03:13:15;;;;;;;;;12.00;9.50;;;;;;;;5027721;28;11505;-74
2021/03/05 03:15:43;;;;;;;;;8.25;6.50;;;;;;;;5018512;28;11540;-74
2021/03/05 03:18:12;;;;;;;;;5.75;5.25;;;;;;;;5023098;28;12200;-74
2021/03/05 03:20:40;;;;;;;;;2.50;2.50;;;;;;;;5025119;28;11500;-74
2021/03/05 03:23:07;;;;;;;;;8.00;5.00;;;;;;;;5023490;28;12354;-74
2021/03/05 03:25:34;;;;;;;;;2.00;2.00;;;;;;;;5024661;28;11531;-74
2021/03/05 03:28:02;;;;;;;;;5.75;4.00;;;;;;;;5023061;28;11504;-74
2021/03/05 03:30:29;;;;;;;;;6.75;4.00;;;;;;;;5019708;28;11546;-74
2021/03/05 03:32:56;;;;;;;;;3.50;3.50;;;;;;;;5028084;28;11665;-74
2021/03/05 03:35:24;;;;;;;;;10.25;5.75;;;;;;;;5023715;28;11526;-74
2021/03/05 03:37:54;;;;;;;;;2.50;2.50;;;;;;;;5023788;28;11521;-74
2021/03/05 03:40:22;;;;;;;;;4.50;3.00;;;;;;;;5010435;28;11529;-73
2021/03/05 03:42:50;;;;;;;;;5.25;4.00;;;;;;;;5024020;28;12314;-73
2021/03/05 03:45:20;;;;;;;;;0.25;0.25;;;;;;;;5020406;28;11533;-73
2021/03/05 03:47:47;;;;;;;;;2.00;2.00;;;;;;;;5018708;28;11503;-74
2021/03/05 03:50:19;;;;;;;;;2.00;2.00;;;;;;;;5030691;28;11679;-74
2021/03/05 03:52:49;;;;;;;;;1.00;1.00;;;;;;;;5009391;28;12286;-73
2021/03/05 03:55:17;;;;;;;;;4.00;1.00;;;;;;;;5031401;28;11498;-74
2021/03/05 03:57:46;;;;;;;;;2.50;2.50;;;;;;;;5020825;28;12292;-74
2021/03/05 04:00:15;;;;;;;;;1.25;1.25;;;;;;;;5041285;28;11536;-73
2021/03/05 04:02:44;;;;;;;;;2.00;2.00;;;;;;;;5009437;28;11487;-73
2021/03/05 04:05:13;;;;;;;;;5.00;2.50;;;;;;;;5026863;28;11549;-74
2021/03/05 04:07:44;;;;;;;;;5.75;4.00;;;;;;;;5025759;28;11505;-74
2021/03/05 04:10:12;;;;;;;;;6.00;2.50;;;;;;;;5030168;28;11543;-73
2021/03/05 04:12:40;;;;;;;;;1.25;1.25;;;;;;;;5030872;28;11587;-74
2021/03/05 04:15:08;;;;;;;;;1.75;1.75;;;;;;;;5029913;28;11515;-73
2021/03/05 04:17:35;;;;;;;;;5.00;2.00;;;;;;;;5030079;28;11529;-72
2021/03/05 04:20:03;;;;;;;;;1.75;1.75;;;;;;;;5029016;28;11650;-71
2021/03/05 04:22:31;;;;;;;;;4.25;2.00;;;;;;;;5029698;28;11508;-71
2021/03/05 04:24:58;;;;;;;;;0.00;0.00;;;;;;;;5030545;28;11531;-72
2021/03/05 04:27:25;;;;;;;;;1.00;1.00;;;;;;;;5029915;28;11514;-72
2021/03/05 04:29:53;;;;;;;;;2.00;2.00;;;;;;;;5026582;28;11574;-72
2021/03/05 04:32:20;;;;;;;;;1.00;1.00;;;;;;;;5028570;28;12319;-72
2021/03/05 04:34:47;;;;;;;;;0.00;0.00;;;;;;;;5030645;28;11493;-73
2021/03/05 04:37:14;;;;;;;;;3.50;1.00;;;;;;;;5025916;28;11638;-73
2021/03/05 04:39:41;;;;;;;;;1.00;1.00;;;;;;;;5030420;28;11518;-73
2021/03/05 04:42:08;;;;;;;;;1.00;1.00;;;;;;;;5029938;28;11530;-72
2021/03/05 04:44:35;;;;;;;;;1.75;1.25;;;;;;;;5029908;28;12351;-72
2021/03/05 04:47:03;;;;;;;;;1.00;1.00;;;;;;;;5029487;28;12286;-73
2021/03/05 04:49:29;;;;;;;;;4.00;1.00;;;;;;;;5028563;28;11523;-72
2021/03/05 04:51:56;;;;;;;;;2.00;2.00;;;;;;;;5027758;28;11500;-74
2021/03/05 04:54:23;;;;;;;;;5.50;1.50;;;;;;;;5023617;28;11496;-72
2021/03/05 04:56:50;;;;;;;;;2.00;2.00;;;;;;;;5030459;28;11525;-72
2021/03/05 04:59:17;;;;;;;;;5.00;0.75;;;;;;;;5037495;28;11517;-73
2021/03/05 05:01:44;;;;;;;;;4.00;1.00;;;;;;;;5028976;28;11486;-75
2021/03/05 05:04:12;;;;;;;;;0.75;0.75;;;;;;;;5009497;28;11622;-73
2021/03/05 05:06:39;;;;;;;;;2.75;1.00;;;;;;;;5022783;28;11605;-74
2021/03/05 05:09:06;;;;;;;;;1.00;1.00;;;;;;;;5008569;28;11544;-74
2021/03/05 05:11:33;;;;;;;;;2.00;0.50;;;;;;;;5021413;28;11510;-73
2021/03/05 05:13:59;;;;;;;;;1.00;1.00;;;;;;;;5026758;28;11524;-73
2021/03/05 05:16:28;;;;;;;;;1.00;1.00;;;;;;;;5026086;28;11639;-74
2021/03/05 05:18:55;;;;;;;;;1.00;1.00;;;;;;;;5026596;28;11617;-73
2021/03/05 05:21:23;;;;;;;;;2.00;2.00;;;;;;;;5026660;28;11495;-74
2021/03/05 05:23:50;;;;;;;;;3.00;1.00;;;;;;;;5026172;28;11534;-74
2021/03/05 05:26:17;;;;;;;;;2.00;2.00;;;;;;;;5026921;28;11495;-74
2021/03/05 05:28:44;;;;;;;;;1.50;1.50;;;;;;;;5008058;28;11598;-73
2021/03/05 05:31:11;;;;;;;;;2.00;0.75;;;;;;;;5026126;28;11481;-73
2021/03/05 05:33:37;;;;;;;;;2.00;1.00;;;;;;;;5031468;28;11507;-73
2021/03/05 05:36:05;;;;;;;;;1.00;1.00;;;;;;;;5024800;28;12346;-73
2021/03/05 05:38:32;;;;;;;;;0.00;0.00;;;;;;;;5026041;28;11542;-73
2021/03/05 05:41:00;;;;;;;;;3.00;2.00;;;;;;;;5025919;28;11614;-73
2021/03/05 05:43:31;;;;;;;;;0.00;0.00;;;;;;;;5026485;28;11542;-73
2021/03/05 05:46:04;;;;;;;;;1.50;1.50;;;;;;;;5016737;28;11513;-72
2021/03/05 05:48:31;;;;;;;;;3.00;1.00;;;;;;;;5026150;28;11526;-73
2021/03/05 05:50:59;;;;;;;;;1.75;1.50;;;;;;;;5020173;28;11585;-74
2021/03/05 05:53:34;;;;;;;;;1.00;1.00;;;;;;;;5026439;28;12092;-73
2021/03/05 05:56:01;;;;;;;;;1.00;1.00;;;;;;;;5026399;28;11479;-73
2021/03/05 05:58:28;;;;;;;;;5.00;3.00;;;;;;;;5024387;28;11471;-73
2021/03/05 06:00:57;;;;;;;;;2.00;2.00;;;;;;;;4997723;28;11440;-74
2021/03/05 06:03:28;;;;;;;;;5.75;5.25;;;;;;;;5023227;28;11518;-72
2021/03/05 06:05:56;;;;;;;;;5.00;5.00;;;;;;;;5025985;28;11533;-72
2021/03/05 06:08:23;;;;;;;;;1.50;1.25;;;;;;;;5024933;28;11553;-73
2021/03/05 06:10:52;;;;;;;;;2.50;2.50;;;;;;;;5025270;28;11029;-73
2021/03/05 06:13:19;;;;;;;;;5.25;5.25;;;;;;;;5024779;28;11488;-73
2021/03/05 06:16:01;;;;;;;;;8.50;7.25;;;;;;;;5017359;28;11525;-73
2021/03/05 06:18:31;;;;;;;;;6.50;6.50;;;;;;;;5025547;28;11543;-73
2021/03/05 06:20:59;;;;;;;;;4.50;4.50;;;;;;;;5024251;28;11537;-73
2021/03/05 06:23:27;;;;;;;;;7.75;4.00;;;;;;;;5024107;28;11511;-73
2021/03/05 06:26:00;;;;;;;;;8.25;7.00;;;;;;;;5024712;28;11500;-73
2021/03/05 06:28:27;;;;;;;;;5.00;5.00;;;;;;;;5007092;28;11558;-73
2021/03/05 06:30:55;;;;;;;;;9.75;8.50;;;;;;;;5025366;28;11488;-73
2021/03/05 06:33:32;;;;;;;;;7.00;7.00;;;;;;;;5009940;28;11530;-73
2021/03/05 06:36:17;;;;;;;;;13.25;13.25;;;;;;;;5020727;28;11582;-73
2021/03/05 06:38:44;;;;;;;;;8.75;6.50;;;;;;;;5023965;28;11539;-73
2021/03/05 06:41:20;;;;;;;;;15.50;12.00;;;;;;;;5025977;28;11551;-73
2021/03/05 06:43:49;;;;;;;;;5.00;5.00;;;;;;;;5016550;28;11612;-74
2021/03/05 06:46:30;;;;;;;;;8.25;8.25;;;;;;;;5024671;28;11575;-74
2021/03/05 06:48:57;;;;;;;;;16.00;11.75;;;;;;;;5025389;28;11537;-73
2021/03/05 06:51:25;;;;;;;;;17.25;14.00;;;;;;;;5023527;28;11987;-73
2021/03/05 06:54:03;;;;;;;;;14.75;12.75;;;;;;;;5011555;28;11590;-73
2021/03/05 06:56:32;;;;;;;;;10.75;10.75;;;;;;;;5024415;28;11533;-74
2021/03/05 06:59:00;;;;;;;;;18.00;14.00;;;;;;;;5022505;28;11534;-74
2021/03/05 07:01:27;;;;;;;;;17.00;13.75;;;;;;;;5025239;28;11450;-73
2021/03/05 07:04:07;;;;;;;;;13.50;9.50;;;;;;;;5023864;28;11548;-73
2021/03/05 07:06:34;;;;;;;;;14.00;11.50;;;;;;;;5019432;28;11585;-73
2021/03/05 07:09:02;;;;;;;;;9.75;9.00;;;;;;;;5020370;28;11540;-73
2021/03/05 07:11:35;;;;;;;;;8.00;8.00;;;;;;;;5024720;28;11489;-73
2021/03/05 07:14:03;;;;;;;;;16.75;13.25;;;;;;;;5003422;28;11676;-74
2021/03/05 07:16:41;;;;;;;;;14.50;12.00;;;;;;;;5023178;28;11567;-74
2021/03/05 07:19:09;;;;;;;;;10.00;8.75;;;;;;;;5024779;28;11602;-74
2021/03/05 07:21:41;;;;;;;;;9.50;9.50;;;;;;;;5022755;28;12327;-73
2021/03/05 07:24:10;;;;;;;;;12.50;8.25;;;;;;;;5024770;28;11510;-74
2021/03/05 07:26:52;;;;;;;;;12.50;8.25;;;;;;;;5021929;28;11515;-75
2021/03/05 07:29:21;;;;;;;;;11.25;8.25;;;;;;;;5012331;28;11529;-74
2021/03/05 07:32:00;;;;;;;;;11.50;9.50;;;;;;;;5027894;28;11488;-74
2021/03/05 07:34:29;;;;;;;;;9.75;7.75;;;;;;;;5024419;28;12567;-73
2021/03/05 07:36:58;;;;;;;;;16.50;11.50;;;;;;;;5021740;28;11585;-73
2021/03/05 07:39:27;;;;;;;;;14.00;11.25;;;;;;;;5015812;28;11555;-74
2021/03/05 07:41:55;;;;;;;;;9.50;9.00;;;;;;;;5017085;28;11545;-73
2021/03/05 07:44:25;;;;;;;;;8.25;7.75;;;;;;;;5019744;28;12262;-74
2021/03/05 07:46:53;;;;;;;;;15.50;12.00;;;;;;;;5005042;28;11528;-74
2021/03/05 07:49:28;;;;;;;;;9.00;9.00;;;;;;;;5026460;28;11522;-73
2021/03/05 07:51:57;;;;;;;;;13.50;13.50;;;;;;;;5018935;28;11540;-73
2021/03/05 07:54:46;;;;;;;;;17.00;11.25;;;;;;;;5020151;28;12487;-74
2021/03/05 07:57:48;;;;;;;;;14.00;14.00;;;;;;;;5017513;28;11652;-73
2021/03/05 08:00:47;;;;;;;;;21.00;17.75;;;;;;;;4958986;28;11578;-72
2021/03/05 08:03:14;;;;;;;;;13.75;13.75;;;;;;;;4961897;28;11585;-73
2021/03/05 08:05:43;;;;;;;;;20.25;14.00;;;;;;;;4997633;28;11587;-74
2021/03/05 08:08:16;;;;;;;;;14.75;9.25;;;;;;;;5018364;28;11609;-74
2021/03/05 08:10:45;;;;;;;;;7.25;6.00;;;;;;;;5018311;28;11538;-74
2021/03/05 08:13:51;;;;;;;;;18.50;16.25;;;;;;;;4997375;28;11605;-72
2021/03/05 08:16:40;;;;;;;;;7.00;7.00;;;;;;;;5019803;28;11630;-73
2021/03/05 08:19:44;;;;;;;;;16.50;11.00;;;;;;;;5009698;28;11620;-73
2021/03/05 08:22:11;;;;;;;;;10.25;8.00;;;;;;;;5019386;28;11501;-72
2021/03/05 08:24:40;;;;;;;;;5.00;5.00;;;;;;;;5021647;28;11571;-72
2021/03/05 08:27:18;;;;;;;;;10.00;10.00;;;;;;;;5000791;28;11612;-73
2021/03/05 08:29:55;;;;;;;;;11.25;7.25;;;;;;;;5018795;28;11546;-73
2021/03/05 08:32:50;;;;;;;;;10.00;8.00;;;;;;;;5022865;28;11505;-73
2021/03/05 08:35:18;;;;;;;;;4.75;4.75;;;;;;;;5024152;28;11682;-73
2021/03/05 08:37:46;;;;;;;;;6.50;4.00;;;;;;;;5025942;28;11533;-73
2021/03/05 08:40:34;;;;;;;;;11.50;8.75;;;;;;;;5025549;28;11507;-73
2021/03/05 08:43:17;;;;;;;;;5.50;5.50;;;;;;;;5018444;28;11649;-73
2021/03/05 08:45:46;;;;;;;;;8.00;8.00;;;;;;;;5023594;28;11957;-73
2021/03/05 08:48:30;;;;;;;;;7.25;6.25;;;;;;;;5021935;28;11550;-72
2021/03/05 08:51:14;;;;;;;;;12.75;8.50;;;;;;;;5025290;28;11690;-72
2021/03/05 08:53:47;;;;;;;;;9.25;9.25;;;;;;;;5018694;28;11641;-73
2021/03/05 08:56:22;;;;;;;;;5.75;5.75;;;;;;;;5022550;28;11650;-73
2021/03/05 08:58:59;;;;;;;;;11.50;9.00;;;;;;;;5022488;28;11583;-73
2021/03/05 09:01:28;;;;;;;;;5.00;5.00;;;;;;;;5021886;28;11617;-72
2021/03/05 09:04:09;;;;;;;;;12.00;6.50;;;;;;;;5024710;28;12144;-72
2021/03/05 09:06:36;;;;;;;;;6.00;6.00;;;;;;;;5023243;28;11538;-72
2021/03/05 09:09:10;;;;;;;;;6.00;6.00;;;;;;;;5026337;28;11548;-73
2021/03/05 09:11:36;;;;;;;;;7.00;6.25;;;;;;;;5025648;28;11507;-72
2021/03/05 09:14:22;;;;;;;;;8.25;5.00;;;;;;;;5002203;28;11507;-72
2021/03/05 09:16:56;;;;;;;;;6.75;5.00;;;;;;;;5008238;28;12368;-73
2021/03/05 09:19:35;;;;;;;;;11.25;6.00;;;;;;;;5014634;28;11495;-73
2021/03/05 09:22:14;;;;;;;;;9.00;8.00;;;;;;;;5020023;28;11523;-72
2021/03/05 09:24:56;;;;;;;;;5.00;5.00;;;;;;;;5021013;28;11555;-73
2021/03/05 09:27:25;;;;;;;;;8.00;8.00;;;;;;;;5020398;28;11526;-72
2021/03/05 09:29:52;;;;;;;;;13.50;11.00;;;;;;;;5017706;28;11526;-72
2021/03/05 09:32:19;;;;;;;;;8.00;8.00;;;;;;;;5025725;28;11573;-72
2021/03/05 09:34:55;;;;;;;;;8.75;6.50;;;;;;;;5019323;28;11538;-73
2021/03/05 09:37:23;;;;;;;;;13.00;11.50;;;;;;;;5018469;28;12291;-73
2021/03/05 09:39:52;;;;;;;;;8.50;8.50;;;;;;;;5019542;28;11460;-70
2021/03/05 09:42:27;;;;;;;;;14.25;11.25;;;;;;;;5024399;28;11562;-72
2021/03/05 09:44:54;;;;;;;;;12.50;12.50;;;;;;;;5018104;28;11603;-71
2021/03/05 09:47:21;;;;;;;;;12.25;12.00;;;;;;;;5024015;28;11608;-73
2021/03/05 09:49:48;;;;;;;;;12.75;12.75;;;;;;;;5023951;28;12432;-72
2021/03/05 09:52:28;;;;;;;;;12.75;11.00;;;;;;;;5024843;28;12379;-72
2021/03/05 09:54:55;;;;;;;;;6.00;6.00;;;;;;;;5019175;28;11514;-73
2021/03/05 09:57:25;;;;;;;;;19.50;12.00;;;;;;;;5001369;28;11535;-73
2021/03/05 09:59:52;;;;;;;;;11.25;11.25;;;;;;;;5019420;28;11559;-73
2021/03/05 10:02:19;;;;;;;;;13.75;11.75;;;;;;;;5020005;28;11444;-72
2021/03/05 10:04:47;;;;;;;;;19.50;13.50;;;;;;;;5017990;28;11552;-73
2021/03/05 10:07:14;;;;;;;;;23.00;11.25;;;;;;;;5021845;28;11611;-73
2021/03/05 10:09:42;;;;;;;;;20.75;17.50;;;;;;;;5021248;28;11615;-71
2021/03/05 10:12:10;;;;;;;;;16.00;16.00;;;;;;;;5019894;28;11682;-73
2021/03/05 10:14:36;;;;;;;;;24.75;18.50;;;;;;;;5019311;28;11578;-72
2021/03/05 10:17:12;;;;;;;;;22.50;18.00;;;;;;;;5019268;28;11685;-72
2021/03/05 10:19:40;;;;;;;;;17.25;15.50;;;;;;;;5019596;28;11633;-70
2021/03/05 10:22:08;;;;;;;;;24.75;17.00;;;;;;;;5019463;28;11564;-73
2021/03/05 10:24:36;;;;;;;;;20.00;18.00;;;;;;;;5024300;28;12538;-72
2021/03/05 10:27:11;;;;;;;;;25.75;20.25;;;;;;;;5024524;28;11580;-72
2021/03/05 10:29:40;;;;;;;;;14.00;11.75;;;;;;;;5025692;28;11524;-72
2021/03/05 10:32:20;;;;;;;;;19.50;17.25;;;;;;;;5021151;28;11517;-73
2021/03/05 10:34:48;;;;;;;;;17.25;17.25;;;;;;;;5022599;28;11576;-72
2021/03/05 10:37:16;;;;;;;;;22.50;17.25;;;;;;;;5017942;28;12428;-72
2021/03/05 10:39:45;;;;;;;;;22.50;21.75;;;;;;;;5017396;28;11573;-72
2021/03/05 10:42:14;;;;;;;;;21.00;17.75;;;;;;;;5014591;28;11571;-72
2021/03/05 10:44:42;;;;;;;;;17.75;17.50;;;;;;;;5023670;28;11583;-72
2021/03/05 10:47:11;;;;;;;;;15.50;13.75;;;;;;;;5023716;28;12475;-72
2021/03/05 10:49:38;;;;;;;;;21.75;16.75;;;;;;;;5016430;28;11663;-72
2021/03/05 10:52:06;;;;;;;;;19.50;19.50;;;;;;;;5020830;28;11552;-72
2021/03/05 10:54:33;;;;;;;;;20.00;17.75;;;;;;;;5020247;28;11624;-73
2021/03/05 10:57:00;;;;;;;;;12.00;12.00;;;;;;;;5020153;28;11655;-72
2021/03/05 10:59:27;;;;;;;;;15.00;14.00;;;;;;;;5022576;28;11499;-73
2021/03/05 11:01:55;;;;;;;;;15.25;15.25;;;;;;;;5022199;28;12491;-72
2021/03/05 11:04:22;;;;;;;;;13.50;12.75;;;;;;;;5020683;28;11537;-71
2021/03/05 11:06:49;;;;;;;;;18.25;15.50;;;;;;;;5021500;28;11538;-71
2021/03/05 11:09:17;;;;;;;;;18.75;13.75;;;;;;;;5030123;28;11537;-72
2021/03/05 11:11:44;;;;;;;;;13.75;13.75;;;;;;;;5027603;28;11581;-72
2021/03/05 11:14:11;;;;;;;;;16.75;14.00;;;;;;;;5018981;28;11656;-72
2021/03/05 11:16:39;;;;;;;;;10.50;9.75;;;;;;;;5025699;28;11615;-71
2021/03/05 11:19:06;;;;;;;;;16.50;13.75;;;;;;;;5025116;28;11545;-72
2021/03/05 11:21:34;;;;;;;;;14.00;9.50;;;;;;;;5024977;28;12374;-72
2021/03/05 11:24:01;;;;;;;;;13.00;13.00;;;;;;;;5022941;28;11665;-72
2021/03/05 11:26:28;;;;;;;;;13.75;12.00;;;;;;;;5000800;28;11654;-73
2021/03/05 11:28:55;;;;;;;;;11.50;11.50;;;;;;;;5018502;28;11551;-73
2021/03/05 11:31:22;;;;;;;;;12.00;12.00;;;;;;;;5008237;28;11583;-73
2021/03/05 11:33:51;;;;;;;;;13.00;11.50;;;;;;;;5017534;28;11550;-73
2021/03/05 11:36:19;;;;;;;;;10.00;10.00;;;;;;;;5021858;28;11578;-72
2021/03/05 11:38:47;;;;;;;;;14.75;12.75;;;;;;;;5029403;28;11548;-73
2021/03/05 11:41:15;;;;;;;;;8.00;8.00;;;;;;;;5023742;28;12369;-73
2021/03/05 11:43:42;;;;;;;;;13.00;11.00;;;;;;;;5025300;28;11596;-73
2021/03/05 11:46:08;;;;;;;;;14.75;12.00;;;;;;;;5023073;28;11540;-73
2021/03/05 11:48:35;;;;;;;;;16.75;14.75;;;;;;;;5023581;28;12317;-72
2021/03/05 11:51:04;;;;;;;;;79.50;56.50;;;;;;;;5004930;28;11542;-73
2021/03/05 11:53:30;;;;;;;;;17.00;14.25;;;;;;;;5022880;28;11609;-71
2021/03/05 11:55:58;;;;;;;;;18.75;18.00;;;;;;;;5020334;28;11558;-74
2021/03/05 11:58:25;;;;;;;;;16.25;16.25;;;;;;;;5022370;28;11546;-72
2021/03/05 12:00:51;;;;;;;;;20.00;14.00;;;;;;;;5024727;28;11468;-73
2021/03/05 12:03:18;;;;;;;;;13.50;12.00;;;;;;;;5014582;28;11719;-73
2021/03/05 12:05:45;;;;;;;;;15.75;11.25;;;;;;;;5013317;28;12439;-73
2021/03/05 12:08:13;;;;;;;;;15.25;13.00;;;;;;;;5017247;28;11569;-73
2021/03/05 12:10:40;;;;;;;;;19.50;18.50;;;;;;;;5018832;28;11562;-73
2021/03/05 12:13:07;;;;;;;;;15.00;15.00;;;;;;;;5000507;28;12364;-73
2021/03/05 12:15:34;;;;;;;;;13.75;11.50;;;;;;;;5023751;28;12373;-72
2021/03/05 12:18:01;;;;;;;;;14.00;12.00;;;;;;;;5023208;28;11557;-72
2021/03/05 12:20:28;;;;;;;;;10.50;10.50;;;;;;;;5023522;28;11577;-75
2021/03/05 12:22:54;;;;;;;;;13.00;10.00;;;;;;;;5026007;28;11667;-72
2021/03/05 12:25:22;;;;;;;;;9.00;8.25;;;;;;;;5017765;28;11697;-72
2021/03/05 12:27:49;;;;;;;;;13.50;13.50;;;;;;;;5018347;28;12928;-73
2021/03/05 12:30:17;;;;;;;;;9.00;9.00;;;;;;;;5016395;28;11541;-72
2021/03/05 12:32:45;;;;;;;;;17.25;9.25;;;;;;;;5023539;28;11499;-71
2021/03/05 12:35:14;;;;;;;;;7.25;5.50;;;;;;;;5019243;28;11532;-71
2021/03/05 12:37:41;;;;;;;;;13.00;10.00;;;;;;;;5026552;28;11468;-72
2021/03/05 12:40:09;;;;;;;;;11.50;10.75;;;;;;;;5025605;28;11489;-72
2021/03/05 12:42:37;;;;;;;;;9.50;9.50;;;;;;;;5025433;28;12293;-72
2021/03/05 12:45:06;;;;;;;;;12.25;10.75;;;;;;;;5027105;28;11563;-72
2021/03/05 12:47:33;;;;;;;;;11.50;9.50;;;;;;;;5015884;28;11461;-72
2021/03/05 12:50:00;;;;;;;;;9.50;9.00;;;;;;;;5023897;28;12202;-73
2021/03/05 12:52:27;;;;;;;;;9.75;9.00;;;;;;;;5027698;28;11613;-73
2021/03/05 12:54:54;;;;;;;;;9.25;8.00;;;;;;;;5005829;28;12254;-73
2021/03/05 12:57:21;;;;;;;;;12.50;9.00;;;;;;;;5025471;28;11436;-73
2021/03/05 12:59:48;;;;;;;;;12.50;9.00;;;;;;;;5025902;28;11956;-73
2021/03/05 13:02:15;;;;;;;;;9.50;7.75;;;;;;;;5026237;28;11456;-72
2021/03/05 13:04:42;;;;;;;;;8.50;8.50;;;;;;;;5012439;28;11502;-73
2021/03/05 13:07:09;;;;;;;;;10.00;10.00;;;;;;;;5027614;28;11510;-73
2021/03/05 13:09:36;;;;;;;;;8.00;6.50;;;;;;;;5026385;28;11508;-72
2021/03/05 13:12:03;;;;;;;;;8.75;8.75;;;;;;;;5026611;28;11529;-73
2021/03/05 13:14:29;;;;;;;;;14.00;11.25;;;;;;;;5026574;28;11547;-73
2021/03/05 13:16:57;;;;;;;;;7.00;6.25;;;;;;;;5025515;28;11549;-72
2021/03/05 13:19:24;;;;;;;;;6.50;6.25;;;;;;;;5024902;28;11455;-73
2021/03/05 13:21:51;;;;;;;;;10.25;7.75;;;;;;;;5023568;28;11438;-73
2021/03/05 13:24:18;;;;;;;;;9.50;7.25;;;;;;;;5026785;28;11628;-72
2021/03/05 13:26:44;;;;;;;;;9.00;8.25;;;;;;;;5024290;28;11458;-73
2021/03/05 13:29:11;;;;;;;;;6.25;6.25;;;;;;;;5023264;28;12070;-73
2021/03/05 13:31:38;;;;;;;;;7.25;7.25;;;;;;;;5027105;28;11133;-74
2021/03/05 13:34:06;;;;;;;;;10.00;7.00;;;;;;;;5016444;28;11065;-73
2021/03/05 13:36:33;;;;;;;;;7.50;6.50;;;;;;;;5018554;28;11457;-73
2021/03/05 13:39:00;;;;;;;;;6.75;6.00;;;;;;;;5016033;28;11521;-73
2021/03/05 13:41:26;;;;;;;;;7.75;7.75;;;;;;;;5026691;28;11511;-71
2021/03/05 13:43:53;;;;;;;;;9.75;9.00;;;;;;;;5023325;28;11456;-74
2021/03/05 13:46:20;;;;;;;;;22.50;20.25;;;;;;;;5023942;28;12346;-72
2021/03/05 13:48:47;;;;;;;;;6.50;6.50;;;;;;;;5024314;28;11513;-72
2021/03/05 13:51:15;;;;;;;;;8.75;7.00;;;;;;;;5021821;28;11111;-73
2021/03/05 13:53:42;;;;;;;;;11.00;6.00;;;;;;;;5022033;28;11021;-73
2021/03/05 13:56:09;;;;;;;;;7.00;7.00;;;;;;;;5001272;28;10849;-72
2021/03/05 13:58:36;;;;;;;;;5.00;5.00;;;;;;;;4999965;28;11553;-73
2021/03/05 14:01:03;;;;;;;;;6.00;6.00;;;;;;;;5021892;28;10441;-72
2021/03/05 14:03:30;;;;;;;;;9.50;6.00;;;;;;;;5022034;28;10685;-72
2021/03/05 14:05:57;;;;;;;;;5.50;5.50;;;;;;;;5018535;28;11700;-72
2021/03/05 14:08:25;;;;;;;;;8.75;7.00;;;;;;;;5016519;28;10989;-71
2021/03/05 14:10:52;;;;;;;;;10.00;8.00;;;;;;;;5023638;28;10853;-71
2021/03/05 14:13:19;;;;;;;;;7.00;7.00;;;;;;;;5022824;28;10956;-71
2021/03/05 14:15:46;;;;;;;;;8.25;6.75;;;;;;;;5021660;28;11118;-72
2021/03/05 14:18:12;;;;;;;;;6.75;6.75;;;;;;;;5021449;28;11054;-72
2021/03/05 14:20:39;;;;;;;;;3.00;3.00;;;;;;;;5021023;28;10951;-72
2021/03/05 14:23:06;;;;;;;;;6.50;6.50;;;;;;;;5004423;28;10762;-72
2021/03/05 14:25:35;;;;;;;;;5.75;5.75;;;;;;;;5021280;28;10855;-71
2021/03/05 14:28:02;;;;;;;;;6.00;6.00;;;;;;;;5022586;28;10786;-71
2021/03/05 14:30:30;;;;;;;;;6.50;5.00;;;;;;;;5019083;28;11101;-71
2021/03/05 14:32:57;;;;;;;;;5.00;5.00;;;;;;;;5022825;28;11091;-71
2021/03/05 14:35:25;;;;;;;;;6.00;6.00;;;;;;;;5023238;28;11209;-71
2021/03/05 14:37:52;;;;;;;;;5.75;5.75;;;;;;;;5018574;28;11315;-71
2021/03/05 14:40:19;;;;;;;;;3.50;3.50;;;;;;;;5022084;28;11333;-71
2021/03/05 14:42:47;;;;;;;;;5.50;4.50;;;;;;;;5021318;28;12366;-70
2021/03/05 14:45:14;;;;;;;;;6.00;3.00;;;;;;;;5020109;28;10864;-72